sensor_id;sensor_type;location;lat;lon;timestamp;P1;durP1;ratioP1;P2;durP2;ratioP2
7607;SDS011;3845;48.120;11.534;2023-06-14T00:01:09;3.50;;;3.03;;
7607;SDS011;3845;48.120;11.534;2023-06-14T00:03:34;3.87;;;2.80;;
7607;SDS011;3845;48.120;11.534;2023-06-14T00:06:00;3.30;;;2.80;;
7607;SDS011;3845;48.120;11.534;2023-06-14T00:08:25;3.10;;;2.80;;
7607;SDS011;3845;48.120;11.534;2023-06-14T00:10:50;3.13;;;2.80;;
7607;SDS011;3845;48.120;11.534;2023-06-14T00:13:16;4.93;;;2.90;;
7607;SDS011;3845;48.120;11.534;2023-06-14T00:15:41;3.20;;;2.90;;
7607;SDS011;3845;48.120;11.534;2023-06-14T00:18:07;3.20;;;2.90;;
7607;SDS011;3845;48.120;11.534;2023-06-14T00:20:34;2.90;;;2.60;;
7607;SDS011;3845;48.120;11.534;2023-06-14T00:23:00;2.70;;;2.50;;
7607;SDS011;3845;48.120;11.534;2023-06-14T00:25:25;3.27;;;2.70;;
7607;SDS011;3845;48.120;11.534;2023-06-14T00:27:52;2.80;;;2.50;;
7607;SDS011;3845;48.120;11.534;2023-06-14T00:30:17;2.77;;;2.53;;
7607;SDS011;3845;48.120;11.534;2023-06-14T00:32:43;3.73;;;3.07;;
7607;SDS011;3845;48.120;11.534;2023-06-14T00:35:09;3.00;;;2.70;;
7607;SDS011;3845;48.120;11.534;2023-06-14T00:37:35;3.13;;;2.83;;
7607;SDS011;3845;48.120;11.534;2023-06-14T00:40:00;3.20;;;2.80;;
7607;SDS011;3845;48.120;11.534;2023-06-14T00:42:26;4.37;;;2.90;;
7607;SDS011;3845;48.120;11.534;2023-06-14T00:44:52;3.20;;;2.90;;
7607;SDS011;3845;48.120;11.534;2023-06-14T00:47:17;3.50;;;2.90;;
7607;SDS011;3845;48.120;11.534;2023-06-14T00:49:45;3.00;;;2.70;;
7607;SDS011;3845;48.120;11.534;2023-06-14T00:52:10;4.23;;;2.77;;
7607;SDS011;3845;48.120;11.534;2023-06-14T00:54:37;3.23;;;2.70;;
7607;SDS011;3845;48.120;11.534;2023-06-14T00:57:05;3.33;;;2.90;;
7607;SDS011;3845;48.120;11.534;2023-06-14T00:59:31;3.20;;;2.83;;
7607;SDS011;3845;48.120;11.534;2023-06-14T01:01:56;4.50;;;2.70;;
7607;SDS011;3845;48.120;11.534;2023-06-14T01:04:21;3.23;;;2.93;;
7607;SDS011;3845;48.120;11.534;2023-06-14T01:06:56;4.57;;;2.67;;
7607;SDS011;3845;48.120;11.534;2023-06-14T01:09:46;3.80;;;2.47;;
7607;SDS011;3845;48.120;11.534;2023-06-14T01:14:46;3.03;;;2.70;;
7607;SDS011;3845;48.120;11.534;2023-06-14T01:17:12;3.00;;;2.70;;
7607;SDS011;3845;48.120;11.534;2023-06-14T01:19:44;4.00;;;2.60;;
7607;SDS011;3845;48.120;11.534;2023-06-14T01:22:10;2.80;;;2.40;;
7607;SDS011;3845;48.120;11.534;2023-06-14T01:24:36;2.93;;;2.53;;
7607;SDS011;3845;48.120;11.534;2023-06-14T01:27:01;2.63;;;2.43;;
7607;SDS011;3845;48.120;11.534;2023-06-14T01:29:27;2.87;;;2.50;;
7607;SDS011;3845;48.120;11.534;2023-06-14T01:31:57;3.13;;;2.70;;
7607;SDS011;3845;48.120;11.534;2023-06-14T01:34:23;3.00;;;2.70;;
7607;SDS011;3845;48.120;11.534;2023-06-14T01:36:48;4.30;;;2.90;;
7607;SDS011;3845;48.120;11.534;2023-06-14T01:39:15;3.03;;;2.73;;
7607;SDS011;3845;48.120;11.534;2023-06-14T01:41:43;4.03;;;2.80;;
7607;SDS011;3845;48.120;11.534;2023-06-14T01:44:10;3.23;;;2.77;;
7607;SDS011;3845;48.120;11.534;2023-06-14T01:46:36;2.77;;;2.57;;
7607;SDS011;3845;48.120;11.534;2023-06-14T01:49:01;3.80;;;2.50;;
7607;SDS011;3845;48.120;11.534;2023-06-14T01:51:27;3.17;;;2.53;;
7607;SDS011;3845;48.120;11.534;2023-06-14T01:53:52;2.73;;;2.50;;
7607;SDS011;3845;48.120;11.534;2023-06-14T01:56:17;5.23;;;2.97;;
7607;SDS011;3845;48.120;11.534;2023-06-14T01:58:43;3.83;;;2.60;;
7607;SDS011;3845;48.120;11.534;2023-06-14T02:01:08;3.00;;;2.50;;
7607;SDS011;3845;48.120;11.534;2023-06-14T02:03:34;4.10;;;2.80;;
7607;SDS011;3845;48.120;11.534;2023-06-14T02:05:59;3.93;;;2.57;;
7607;SDS011;3845;48.120;11.534;2023-06-14T02:08:24;2.80;;;2.60;;
7607;SDS011;3845;48.120;11.534;2023-06-14T02:10:50;2.80;;;2.57;;
7607;SDS011;3845;48.120;11.534;2023-06-14T02:13:15;3.03;;;2.73;;
7607;SDS011;3845;48.120;11.534;2023-06-14T02:15:41;3.03;;;2.47;;
7607;SDS011;3845;48.120;11.534;2023-06-14T02:18:09;2.87;;;2.50;;
7607;SDS011;3845;48.120;11.534;2023-06-14T02:20:35;2.80;;;2.60;;
7607;SDS011;3845;48.120;11.534;2023-06-14T02:23:00;4.50;;;3.27;;
7607;SDS011;3845;48.120;11.534;2023-06-14T02:25:26;3.90;;;3.30;;
7607;SDS011;3845;48.120;11.534;2023-06-14T02:27:52;3.80;;;3.20;;
7607;SDS011;3845;48.120;11.534;2023-06-14T02:30:18;3.20;;;2.90;;
7607;SDS011;3845;48.120;11.534;2023-06-14T02:32:44;5.00;;;2.67;;
7607;SDS011;3845;48.120;11.534;2023-06-14T02:35:10;3.43;;;2.90;;
7607;SDS011;3845;48.120;11.534;2023-06-14T02:37:35;4.13;;;2.80;;
7607;SDS011;3845;48.120;11.534;2023-06-14T02:40:00;3.00;;;2.70;;
7607;SDS011;3845;48.120;11.534;2023-06-14T02:42:26;3.33;;;3.03;;
7607;SDS011;3845;48.120;11.534;2023-06-14T02:44:51;3.50;;;2.90;;
7607;SDS011;3845;48.120;11.534;2023-06-14T02:47:17;3.17;;;2.60;;
7607;SDS011;3845;48.120;11.534;2023-06-14T02:49:43;3.20;;;2.50;;
7607;SDS011;3845;48.120;11.534;2023-06-14T02:52:08;3.23;;;2.93;;
7607;SDS011;3845;48.120;11.534;2023-06-14T02:54:34;4.27;;;2.87;;
7607;SDS011;3845;48.120;11.534;2023-06-14T02:56:59;3.43;;;2.80;;
7607;SDS011;3845;48.120;11.534;2023-06-14T02:59:24;2.87;;;2.57;;
7607;SDS011;3845;48.120;11.534;2023-06-14T03:01:51;3.93;;;2.70;;
7607;SDS011;3845;48.120;11.534;2023-06-14T03:04:16;3.70;;;2.90;;
7607;SDS011;3845;48.120;11.534;2023-06-14T03:06:42;3.03;;;2.67;;
7607;SDS011;3845;48.120;11.534;2023-06-14T03:09:09;2.90;;;2.60;;
7607;SDS011;3845;48.120;11.534;2023-06-14T03:11:34;3.47;;;2.83;;
7607;SDS011;3845;48.120;11.534;2023-06-14T03:14:00;3.80;;;2.90;;
7607;SDS011;3845;48.120;11.534;2023-06-14T03:16:26;2.70;;;2.50;;
7607;SDS011;3845;48.120;11.534;2023-06-14T03:18:55;3.03;;;2.73;;
7607;SDS011;3845;48.120;11.534;2023-06-14T03:21:20;3.10;;;2.80;;
7607;SDS011;3845;48.120;11.534;2023-06-14T03:23:46;3.63;;;3.13;;
7607;SDS011;3845;48.120;11.534;2023-06-14T03:26:12;3.23;;;2.77;;
7607;SDS011;3845;48.120;11.534;2023-06-14T03:28:39;3.00;;;2.70;;
7607;SDS011;3845;48.120;11.534;2023-06-14T03:31:04;3.67;;;3.10;;
7607;SDS011;3845;48.120;11.534;2023-06-14T03:33:29;3.10;;;2.77;;
7607;SDS011;3845;48.120;11.534;2023-06-14T03:35:55;4.63;;;3.13;;
7607;SDS011;3845;48.120;11.534;2023-06-14T03:38:21;3.67;;;2.67;;
7607;SDS011;3845;48.120;11.534;2023-06-14T03:40:46;3.77;;;3.00;;
7607;SDS011;3845;48.120;11.534;2023-06-14T03:43:11;3.70;;;2.80;;
7607;SDS011;3845;48.120;11.534;2023-06-14T03:45:37;3.80;;;2.83;;
7607;SDS011;3845;48.120;11.534;2023-06-14T03:48:02;3.40;;;3.00;;
7607;SDS011;3845;48.120;11.534;2023-06-14T03:50:28;4.17;;;3.30;;
7607;SDS011;3845;48.120;11.534;2023-06-14T03:52:53;4.37;;;3.17;;
7607;SDS011;3845;48.120;11.534;2023-06-14T03:55:19;4.50;;;3.00;;
7607;SDS011;3845;48.120;11.534;2023-06-14T03:57:44;3.47;;;3.00;;
7607;SDS011;3845;48.120;11.534;2023-06-14T04:00:10;4.00;;;2.93;;
7607;SDS011;3845;48.120;11.534;2023-06-14T04:02:37;3.20;;;2.90;;
7607;SDS011;3845;48.120;11.534;2023-06-14T04:05:02;4.00;;;3.37;;
7607;SDS011;3845;48.120;11.534;2023-06-14T04:07:28;3.23;;;2.90;;
7607;SDS011;3845;48.120;11.534;2023-06-14T04:09:54;5.20;;;3.03;;
7607;SDS011;3845;48.120;11.534;2023-06-14T04:12:19;4.30;;;3.00;;
7607;SDS011;3845;48.120;11.534;2023-06-14T04:14:45;3.20;;;2.87;;
7607;SDS011;3845;48.120;11.534;2023-06-14T04:17:10;3.20;;;2.90;;
7607;SDS011;3845;48.120;11.534;2023-06-14T04:19:35;4.20;;;2.80;;
7607;SDS011;3845;48.120;11.534;2023-06-14T04:22:01;3.47;;;3.17;;
7607;SDS011;3845;48.120;11.534;2023-06-14T04:24:27;2.97;;;2.67;;
7607;SDS011;3845;48.120;11.534;2023-06-14T04:26:57;3.13;;;2.83;;
7607;SDS011;3845;48.120;11.534;2023-06-14T04:29:26;4.40;;;3.13;;
7607;SDS011;3845;48.120;11.534;2023-06-14T04:31:54;4.20;;;3.43;;
7607;SDS011;3845;48.120;11.534;2023-06-14T04:34:23;3.27;;;2.93;;
7607;SDS011;3845;48.120;11.534;2023-06-14T04:36:54;3.20;;;2.90;;
7607;SDS011;3845;48.120;11.534;2023-06-14T04:39:21;3.20;;;2.60;;
7607;SDS011;3845;48.120;11.534;2023-06-14T04:41:47;3.63;;;2.90;;
7607;SDS011;3845;48.120;11.534;2023-06-14T04:44:13;4.77;;;3.00;;
7607;SDS011;3845;48.120;11.534;2023-06-14T04:46:38;3.50;;;3.20;;
7607;SDS011;3845;48.120;11.534;2023-06-14T04:49:16;3.83;;;3.20;;
7607;SDS011;3845;48.120;11.534;2023-06-14T04:51:43;3.70;;;3.40;;
7607;SDS011;3845;48.120;11.534;2023-06-14T04:54:09;5.90;;;3.50;;
7607;SDS011;3845;48.120;11.534;2023-06-14T04:56:35;4.67;;;3.00;;
7607;SDS011;3845;48.120;11.534;2023-06-14T04:59:02;4.07;;;3.40;;
7607;SDS011;3845;48.120;11.534;2023-06-14T05:01:29;4.30;;;3.03;;
7607;SDS011;3845;48.120;11.534;2023-06-14T05:03:56;3.67;;;2.97;;
7607;SDS011;3845;48.120;11.534;2023-06-14T05:06:22;3.93;;;2.90;;
7607;SDS011;3845;48.120;11.534;2023-06-14T05:08:47;4.53;;;3.07;;
7607;SDS011;3845;48.120;11.534;2023-06-14T05:11:12;3.53;;;3.07;;
7607;SDS011;3845;48.120;11.534;2023-06-14T05:13:38;3.47;;;3.17;;
7607;SDS011;3845;48.120;11.534;2023-06-14T05:16:04;3.93;;;3.30;;
7607;SDS011;3845;48.120;11.534;2023-06-14T05:18:30;4.10;;;3.20;;
7607;SDS011;3845;48.120;11.534;2023-06-14T05:20:55;3.17;;;2.87;;
7607;SDS011;3845;48.120;11.534;2023-06-14T05:23:20;3.07;;;2.63;;
7607;SDS011;3845;48.120;11.534;2023-06-14T05:25:45;3.10;;;2.80;;
7607;SDS011;3845;48.120;11.534;2023-06-14T05:28:11;3.85;;;3.25;;
7607;SDS011;3845;48.120;11.534;2023-06-14T05:30:37;3.57;;;2.80;;
7607;SDS011;3845;48.120;11.534;2023-06-14T05:33:04;3.63;;;3.10;;
7607;SDS011;3845;48.120;11.534;2023-06-14T05:35:29;3.33;;;3.03;;
7607;SDS011;3845;48.120;11.534;2023-06-14T05:37:55;3.40;;;2.90;;
7607;SDS011;3845;48.120;11.534;2023-06-14T05:40:20;3.27;;;2.90;;
7607;SDS011;3845;48.120;11.534;2023-06-14T05:42:46;4.83;;;2.97;;
7607;SDS011;3845;48.120;11.534;2023-06-14T05:45:11;3.83;;;2.90;;
7607;SDS011;3845;48.120;11.534;2023-06-14T05:47:36;4.07;;;3.00;;
7607;SDS011;3845;48.120;11.534;2023-06-14T05:50:02;3.63;;;2.83;;
7607;SDS011;3845;48.120;11.534;2023-06-14T05:52:27;4.17;;;2.93;;
7607;SDS011;3845;48.120;11.534;2023-06-14T05:54:53;5.00;;;3.70;;
7607;SDS011;3845;48.120;11.534;2023-06-14T05:57:18;4.97;;;4.40;;
7607;SDS011;3845;48.120;11.534;2023-06-14T05:59:43;12.60;;;10.60;;
7607;SDS011;3845;48.120;11.534;2023-06-14T06:02:09;10.13;;;9.13;;
7607;SDS011;3845;48.120;11.534;2023-06-14T06:04:34;7.20;;;6.50;;
7607;SDS011;3845;48.120;11.534;2023-06-14T06:07:01;5.27;;;4.57;;
7607;SDS011;3845;48.120;11.534;2023-06-14T06:09:26;4.20;;;3.80;;
7607;SDS011;3845;48.120;11.534;2023-06-14T06:11:51;3.83;;;3.20;;
7607;SDS011;3845;48.120;11.534;2023-06-14T06:14:16;4.88;;;3.25;;
7607;SDS011;3845;48.120;11.534;2023-06-14T06:16:42;3.92;;;3.30;;
7607;SDS011;3845;48.120;11.534;2023-06-14T06:19:07;3.88;;;3.17;;
7607;SDS011;3845;48.120;11.534;2023-06-14T06:21:32;2.70;;;2.50;;
7607;SDS011;3845;48.120;11.534;2023-06-14T06:23:58;4.38;;;3.00;;
7607;SDS011;3845;48.120;11.534;2023-06-14T06:26:23;3.00;;;2.70;;
7607;SDS011;3845;48.120;11.534;2023-06-14T06:28:48;4.27;;;2.83;;
7607;SDS011;3845;48.120;11.534;2023-06-14T06:31:13;3.22;;;2.78;;
7607;SDS011;3845;48.120;11.534;2023-06-14T06:33:39;3.58;;;2.60;;
7607;SDS011;3845;48.120;11.534;2023-06-14T06:36:04;4.57;;;2.60;;
7607;SDS011;3845;48.120;11.534;2023-06-14T06:38:30;2.60;;;2.40;;
7607;SDS011;3845;48.120;11.534;2023-06-14T06:40:55;3.00;;;2.70;;
7607;SDS011;3845;48.120;11.534;2023-06-14T06:43:21;3.83;;;2.90;;
7607;SDS011;3845;48.120;11.534;2023-06-14T06:45:47;4.68;;;2.60;;
7607;SDS011;3845;48.120;11.534;2023-06-14T06:48:12;3.80;;;2.63;;
7607;SDS011;3845;48.120;11.534;2023-06-14T06:50:37;3.20;;;2.90;;
7607;SDS011;3845;48.120;11.534;2023-06-14T06:53:03;5.55;;;3.05;;
7607;SDS011;3845;48.120;11.534;2023-06-14T06:55:28;3.00;;;2.78;;
7607;SDS011;3845;48.120;11.534;2023-06-14T06:57:54;3.95;;;2.85;;
7607;SDS011;3845;48.120;11.534;2023-06-14T07:00:20;4.43;;;2.70;;
7607;SDS011;3845;48.120;11.534;2023-06-14T07:02:46;3.35;;;2.75;;
7607;SDS011;3845;48.120;11.534;2023-06-14T07:05:12;3.17;;;2.42;;
7607;SDS011;3845;48.120;11.534;2023-06-14T07:07:37;3.80;;;2.25;;
7607;SDS011;3845;48.120;11.534;2023-06-14T07:10:03;3.33;;;2.47;;
7607;SDS011;3845;48.120;11.534;2023-06-14T07:12:30;3.03;;;2.40;;
7607;SDS011;3845;48.120;11.534;2023-06-14T07:14:58;3.15;;;2.85;;
7607;SDS011;3845;48.120;11.534;2023-06-14T07:17:24;3.88;;;2.90;;
7607;SDS011;3845;48.120;11.534;2023-06-14T07:19:49;5.28;;;2.78;;
7607;SDS011;3845;48.120;11.534;2023-06-14T07:22:15;4.65;;;2.60;;
7607;SDS011;3845;48.120;11.534;2023-06-14T07:24:41;4.68;;;3.53;;
7607;SDS011;3845;48.120;11.534;2023-06-14T07:27:07;5.70;;;3.00;;
7607;SDS011;3845;48.120;11.534;2023-06-14T07:29:32;5.10;;;3.67;;
7607;SDS011;3845;48.120;11.534;2023-06-14T07:31:58;4.40;;;3.10;;
7607;SDS011;3845;48.120;11.534;2023-06-14T07:34:23;3.80;;;3.00;;
7607;SDS011;3845;48.120;11.534;2023-06-14T07:36:48;4.47;;;2.75;;
7607;SDS011;3845;48.120;11.534;2023-06-14T07:39:14;3.83;;;2.90;;
7607;SDS011;3845;48.120;11.534;2023-06-14T07:41:39;3.47;;;2.83;;
7607;SDS011;3845;48.120;11.534;2023-06-14T07:44:04;4.78;;;2.88;;
7607;SDS011;3845;48.120;11.534;2023-06-14T07:46:30;3.20;;;2.80;;
7607;SDS011;3845;48.120;11.534;2023-06-14T07:48:55;3.83;;;2.42;;
7607;SDS011;3845;48.120;11.534;2023-06-14T07:51:20;3.50;;;2.80;;
7607;SDS011;3845;48.120;11.534;2023-06-14T07:53:47;3.05;;;2.70;;
7607;SDS011;3845;48.120;11.534;2023-06-14T07:56:13;3.33;;;2.90;;
7607;SDS011;3845;48.120;11.534;2023-06-14T07:58:38;4.45;;;3.00;;
7607;SDS011;3845;48.120;11.534;2023-06-14T08:01:04;3.33;;;3.00;;
7607;SDS011;3845;48.120;11.534;2023-06-14T08:03:32;3.00;;;2.70;;
7607;SDS011;3845;48.120;11.534;2023-06-14T08:05:58;3.25;;;2.60;;
7607;SDS011;3845;48.120;11.534;2023-06-14T08:08:23;5.75;;;2.50;;
7607;SDS011;3845;48.120;11.534;2023-06-14T08:10:48;3.95;;;2.70;;
7607;SDS011;3845;48.120;11.534;2023-06-14T08:13:14;4.07;;;3.15;;
7607;SDS011;3845;48.120;11.534;2023-06-14T08:15:39;5.47;;;2.67;;
7607;SDS011;3845;48.120;11.534;2023-06-14T08:18:05;3.15;;;2.72;;
7607;SDS011;3845;48.120;11.534;2023-06-14T08:20:30;4.05;;;2.65;;
7607;SDS011;3845;48.120;11.534;2023-06-14T08:22:56;4.47;;;3.10;;
7607;SDS011;3845;48.120;11.534;2023-06-14T08:25:22;3.90;;;3.00;;
7607;SDS011;3845;48.120;11.534;2023-06-14T08:27:48;2.80;;;2.50;;
7607;SDS011;3845;48.120;11.534;2023-06-14T08:30:13;5.33;;;2.63;;
7607;SDS011;3845;48.120;11.534;2023-06-14T08:32:39;3.93;;;3.00;;
7607;SDS011;3845;48.120;11.534;2023-06-14T08:35:04;3.53;;;2.67;;
7607;SDS011;3845;48.120;11.534;2023-06-14T08:37:30;3.87;;;2.50;;
7607;SDS011;3845;48.120;11.534;2023-06-14T08:39:56;2.97;;;2.53;;
7607;SDS011;3845;48.120;11.534;2023-06-14T08:42:21;3.73;;;3.07;;
7607;SDS011;3845;48.120;11.534;2023-06-14T08:44:49;4.37;;;2.80;;
7607;SDS011;3845;48.120;11.534;2023-06-14T08:47:14;4.03;;;3.10;;
7607;SDS011;3845;48.120;11.534;2023-06-14T08:49:41;4.30;;;2.90;;
7607;SDS011;3845;48.120;11.534;2023-06-14T08:52:10;3.30;;;2.70;;
7607;SDS011;3845;48.120;11.534;2023-06-14T08:54:37;5.33;;;3.00;;
7607;SDS011;3845;48.120;11.534;2023-06-14T08:57:08;3.40;;;2.90;;
7607;SDS011;3845;48.120;11.534;2023-06-14T08:59:37;3.53;;;2.97;;
7607;SDS011;3845;48.120;11.534;2023-06-14T09:02:11;2.93;;;2.60;;
7607;SDS011;3845;48.120;11.534;2023-06-14T09:04:38;2.87;;;2.57;;
7607;SDS011;3845;48.120;11.534;2023-06-14T09:07:04;3.23;;;2.83;;
7607;SDS011;3845;48.120;11.534;2023-06-14T09:09:31;6.93;;;2.90;;
7607;SDS011;3845;48.120;11.534;2023-06-14T09:11:56;3.60;;;2.30;;
7607;SDS011;3845;48.120;11.534;2023-06-14T09:14:23;3.20;;;2.67;;
7607;SDS011;3845;48.120;11.534;2023-06-14T09:16:53;4.30;;;2.93;;
7607;SDS011;3845;48.120;11.534;2023-06-14T09:19:25;3.13;;;2.83;;
7607;SDS011;3845;48.120;11.534;2023-06-14T09:21:52;5.60;;;3.27;;
7607;SDS011;3845;48.120;11.534;2023-06-14T09:24:18;3.50;;;2.80;;
7607;SDS011;3845;48.120;11.534;2023-06-14T09:26:46;3.10;;;2.70;;
7607;SDS011;3845;48.120;11.534;2023-06-14T09:29:12;2.77;;;2.27;;
7607;SDS011;3845;48.120;11.534;2023-06-14T09:31:37;3.40;;;2.83;;
7607;SDS011;3845;48.120;11.534;2023-06-14T09:34:03;7.20;;;2.87;;
7607;SDS011;3845;48.120;11.534;2023-06-14T09:36:28;3.57;;;3.20;;
7607;SDS011;3845;48.120;11.534;2023-06-14T09:39:01;3.30;;;3.00;;
7607;SDS011;3845;48.120;11.534;2023-06-14T09:41:34;3.43;;;3.10;;
7607;SDS011;3845;48.120;11.534;2023-06-14T09:44:01;4.73;;;3.03;;
7607;SDS011;3845;48.120;11.534;2023-06-14T09:46:27;6.43;;;3.47;;
7607;SDS011;3845;48.120;11.534;2023-06-14T09:48:54;4.87;;;2.93;;
7607;SDS011;3845;48.120;11.534;2023-06-14T09:51:19;5.13;;;2.90;;
7607;SDS011;3845;48.120;11.534;2023-06-14T09:53:48;3.83;;;3.00;;
7607;SDS011;3845;48.120;11.534;2023-06-14T09:56:15;3.50;;;3.20;;
7607;SDS011;3845;48.120;11.534;2023-06-14T09:58:49;7.07;;;3.60;;
7607;SDS011;3845;48.120;11.534;2023-06-14T10:01:15;3.93;;;3.20;;
7607;SDS011;3845;48.120;11.534;2023-06-14T10:03:41;4.80;;;3.00;;
7607;SDS011;3845;48.120;11.534;2023-06-14T10:06:07;4.30;;;2.73;;
7607;SDS011;3845;48.120;11.534;2023-06-14T10:08:33;3.60;;;3.17;;
7607;SDS011;3845;48.120;11.534;2023-06-14T10:11:02;3.63;;;3.20;;
7607;SDS011;3845;48.120;11.534;2023-06-14T10:13:28;6.67;;;3.33;;
7607;SDS011;3845;48.120;11.534;2023-06-14T10:15:58;5.10;;;3.83;;
7607;SDS011;3845;48.120;11.534;2023-06-14T10:18:30;4.27;;;3.37;;
7607;SDS011;3845;48.120;11.534;2023-06-14T10:23:43;4.57;;;3.20;;
7607;SDS011;3845;48.120;11.534;2023-06-14T10:26:17;4.40;;;3.83;;
7607;SDS011;3845;48.120;11.534;2023-06-14T10:29:05;4.60;;;3.20;;
7607;SDS011;3845;48.120;11.534;2023-06-14T10:34:10;5.23;;;3.30;;
7607;SDS011;3845;48.120;11.534;2023-06-14T10:36:38;5.27;;;3.33;;
7607;SDS011;3845;48.120;11.534;2023-06-14T10:41:35;5.03;;;3.73;;
7607;SDS011;3845;48.120;11.534;2023-06-14T10:44:30;3.80;;;3.10;;
7607;SDS011;3845;48.120;11.534;2023-06-14T10:47:00;4.50;;;3.30;;
7607;SDS011;3845;48.120;11.534;2023-06-14T10:49:44;4.73;;;2.90;;
7607;SDS011;3845;48.120;11.534;2023-06-14T10:52:11;6.67;;;3.50;;
7607;SDS011;3845;48.120;11.534;2023-06-14T10:57:49;3.90;;;3.50;;
7607;SDS011;3845;48.120;11.534;2023-06-14T11:00:24;4.90;;;3.60;;
7607;SDS011;3845;48.120;11.534;2023-06-14T11:05:39;4.20;;;3.67;;
7607;SDS011;3845;48.120;11.534;2023-06-14T11:11:05;5.77;;;3.57;;
7607;SDS011;3845;48.120;11.534;2023-06-14T11:13:31;5.23;;;3.43;;
7607;SDS011;3845;48.120;11.534;2023-06-14T11:15:57;5.13;;;3.27;;
7607;SDS011;3845;48.120;11.534;2023-06-14T11:18:23;5.03;;;3.57;;
7607;SDS011;3845;48.120;11.534;2023-06-14T11:20:55;3.20;;;2.90;;
7607;SDS011;3845;48.120;11.534;2023-06-14T11:23:21;6.03;;;3.60;;
7607;SDS011;3845;48.120;11.534;2023-06-14T11:25:52;4.47;;;3.40;;
7607;SDS011;3845;48.120;11.534;2023-06-14T11:28:18;3.50;;;3.20;;
7607;SDS011;3845;48.120;11.534;2023-06-14T11:30:47;5.63;;;3.20;;
7607;SDS011;3845;48.120;11.534;2023-06-14T11:33:16;5.07;;;3.33;;
7607;SDS011;3845;48.120;11.534;2023-06-14T11:35:43;4.80;;;3.90;;
7607;SDS011;3845;48.120;11.534;2023-06-14T11:38:09;5.90;;;3.73;;
7607;SDS011;3845;48.120;11.534;2023-06-14T11:40:37;3.47;;;3.17;;
7607;SDS011;3845;48.120;11.534;2023-06-14T11:43:02;4.30;;;3.40;;
7607;SDS011;3845;48.120;11.534;2023-06-14T11:45:28;4.70;;;3.80;;
7607;SDS011;3845;48.120;11.534;2023-06-14T11:47:55;4.73;;;3.50;;
7607;SDS011;3845;48.120;11.534;2023-06-14T11:50:23;3.57;;;3.27;;
7607;SDS011;3845;48.120;11.534;2023-06-14T11:52:53;4.90;;;3.30;;
7607;SDS011;3845;48.120;11.534;2023-06-14T11:55:20;5.23;;;2.87;;
7607;SDS011;3845;48.120;11.534;2023-06-14T11:57:46;4.37;;;3.20;;
7607;SDS011;3845;48.120;11.534;2023-06-14T12:00:11;3.93;;;3.50;;
7607;SDS011;3845;48.120;11.534;2023-06-14T12:02:37;3.60;;;3.30;;
7607;SDS011;3845;48.120;11.534;2023-06-14T12:05:04;4.37;;;3.70;;
7607;SDS011;3845;48.120;11.534;2023-06-14T12:07:32;5.03;;;3.40;;
7607;SDS011;3845;48.120;11.534;2023-06-14T12:12:23;3.37;;;3.07;;
7607;SDS011;3845;48.120;11.534;2023-06-14T12:14:53;4.83;;;3.87;;
7607;SDS011;3845;48.120;11.534;2023-06-14T12:17:20;4.30;;;3.37;;
7607;SDS011;3845;48.120;11.534;2023-06-14T12:19:45;3.33;;;3.03;;
7607;SDS011;3845;48.120;11.534;2023-06-14T12:22:14;3.80;;;3.10;;
7607;SDS011;3845;48.120;11.534;2023-06-14T12:24:43;4.20;;;3.10;;
7607;SDS011;3845;48.120;11.534;2023-06-14T12:27:08;3.30;;;3.00;;
7607;SDS011;3845;48.120;11.534;2023-06-14T12:29:37;3.80;;;3.27;;
7607;SDS011;3845;48.120;11.534;2023-06-14T12:32:02;4.03;;;3.50;;
7607;SDS011;3845;48.120;11.534;2023-06-14T12:34:28;6.43;;;3.30;;
7607;SDS011;3845;48.120;11.534;2023-06-14T12:36:53;6.17;;;3.20;;
7607;SDS011;3845;48.120;11.534;2023-06-14T12:39:19;3.80;;;3.40;;
7607;SDS011;3845;48.120;11.534;2023-06-14T12:41:45;4.30;;;3.13;;
7607;SDS011;3845;48.120;11.534;2023-06-14T12:44:11;4.70;;;3.43;;
7607;SDS011;3845;48.120;11.534;2023-06-14T12:46:37;4.47;;;3.00;;
7607;SDS011;3845;48.120;11.534;2023-06-14T12:49:04;6.00;;;3.43;;
7607;SDS011;3845;48.120;11.534;2023-06-14T12:51:30;4.10;;;3.20;;
7607;SDS011;3845;48.120;11.534;2023-06-14T12:53:55;5.83;;;3.13;;
7607;SDS011;3845;48.120;11.534;2023-06-14T12:56:21;3.53;;;3.23;;
7607;SDS011;3845;48.120;11.534;2023-06-14T12:58:46;4.07;;;3.30;;
7607;SDS011;3845;48.120;11.534;2023-06-14T13:01:11;3.43;;;3.13;;
7607;SDS011;3845;48.120;11.534;2023-06-14T13:03:36;3.70;;;3.20;;
7607;SDS011;3845;48.120;11.534;2023-06-14T13:06:02;6.70;;;3.10;;
7607;SDS011;3845;48.120;11.534;2023-06-14T13:08:29;5.17;;;3.60;;
7607;SDS011;3845;48.120;11.534;2023-06-14T13:10:55;4.20;;;3.40;;
7607;SDS011;3845;48.120;11.534;2023-06-14T13:13:20;3.90;;;3.43;;
7607;SDS011;3845;48.120;11.534;2023-06-14T13:15:45;4.30;;;3.10;;
7607;SDS011;3845;48.120;11.534;2023-06-14T13:18:11;3.77;;;3.20;;
7607;SDS011;3845;48.120;11.534;2023-06-14T13:20:38;3.77;;;3.00;;
7607;SDS011;3845;48.120;11.534;2023-06-14T13:23:03;4.73;;;3.43;;
7607;SDS011;3845;48.120;11.534;2023-06-14T13:25:30;4.83;;;3.50;;
7607;SDS011;3845;48.120;11.534;2023-06-14T13:27:56;5.23;;;3.53;;
7607;SDS011;3845;48.120;11.534;2023-06-14T13:30:21;4.20;;;3.10;;
7607;SDS011;3845;48.120;11.534;2023-06-14T13:32:47;3.87;;;3.20;;
7607;SDS011;3845;48.120;11.534;2023-06-14T13:35:12;3.87;;;3.27;;
7607;SDS011;3845;48.120;11.534;2023-06-14T13:37:37;3.30;;;3.00;;
7607;SDS011;3845;48.120;11.534;2023-06-14T13:40:03;5.97;;;3.23;;
7607;SDS011;3845;48.120;11.534;2023-06-14T13:42:29;3.73;;;3.40;;
7607;SDS011;3845;48.120;11.534;2023-06-14T13:44:56;4.10;;;3.20;;
7607;SDS011;3845;48.120;11.534;2023-06-14T13:47:21;3.70;;;3.30;;
7607;SDS011;3845;48.120;11.534;2023-06-14T13:49:46;5.43;;;3.23;;
7607;SDS011;3845;48.120;11.534;2023-06-14T13:52:12;5.03;;;3.30;;
7607;SDS011;3845;48.120;11.534;2023-06-14T13:54:38;3.57;;;3.03;;
7607;SDS011;3845;48.120;11.534;2023-06-14T13:57:03;3.63;;;3.07;;
7607;SDS011;3845;48.120;11.534;2023-06-14T13:59:29;5.70;;;3.80;;
7607;SDS011;3845;48.120;11.534;2023-06-14T14:01:54;4.00;;;3.30;;
7607;SDS011;3845;48.120;11.534;2023-06-14T14:04:19;4.47;;;3.50;;
7607;SDS011;3845;48.120;11.534;2023-06-14T14:06:45;3.53;;;3.23;;
7607;SDS011;3845;48.120;11.534;2023-06-14T14:09:11;5.63;;;3.23;;
7607;SDS011;3845;48.120;11.534;2023-06-14T14:11:36;3.30;;;3.00;;
7607;SDS011;3845;48.120;11.534;2023-06-14T14:14:01;3.93;;;3.03;;
7607;SDS011;3845;48.120;11.534;2023-06-14T14:16:27;3.77;;;3.13;;
7607;SDS011;3845;48.120;11.534;2023-06-14T14:18:52;5.47;;;3.40;;
7607;SDS011;3845;48.120;11.534;2023-06-14T14:21:18;3.90;;;3.30;;
7607;SDS011;3845;48.120;11.534;2023-06-14T14:23:44;3.70;;;3.40;;
7607;SDS011;3845;48.120;11.534;2023-06-14T14:26:10;4.63;;;3.40;;
7607;SDS011;3845;48.120;11.534;2023-06-14T14:28:37;4.83;;;3.57;;
7607;SDS011;3845;48.120;11.534;2023-06-14T14:31:02;5.27;;;3.37;;
7607;SDS011;3845;48.120;11.534;2023-06-14T14:33:27;4.73;;;3.33;;
7607;SDS011;3845;48.120;11.534;2023-06-14T14:35:53;4.53;;;3.03;;
7607;SDS011;3845;48.120;11.534;2023-06-14T14:38:18;4.87;;;3.07;;
7607;SDS011;3845;48.120;11.534;2023-06-14T14:40:43;4.53;;;3.30;;
7607;SDS011;3845;48.120;11.534;2023-06-14T14:43:09;4.13;;;3.57;;
7607;SDS011;3845;48.120;11.534;2023-06-14T14:45:36;4.07;;;3.20;;
7607;SDS011;3845;48.120;11.534;2023-06-14T14:48:01;3.53;;;3.10;;
7607;SDS011;3845;48.120;11.534;2023-06-14T14:50:30;3.10;;;2.80;;
7607;SDS011;3845;48.120;11.534;2023-06-14T14:52:55;3.57;;;3.23;;
7607;SDS011;3845;48.120;11.534;2023-06-14T14:55:21;4.00;;;3.50;;
7607;SDS011;3845;48.120;11.534;2023-06-14T14:57:46;3.20;;;2.90;;
7607;SDS011;3845;48.120;11.534;2023-06-14T15:00:12;6.23;;;3.20;;
7607;SDS011;3845;48.120;11.534;2023-06-14T15:02:38;3.70;;;3.13;;
7607;SDS011;3845;48.120;11.534;2023-06-14T15:05:04;3.27;;;2.90;;
7607;SDS011;3845;48.120;11.534;2023-06-14T15:07:30;3.40;;;3.10;;
7607;SDS011;3845;48.120;11.534;2023-06-14T15:09:56;5.03;;;3.30;;
7607;SDS011;3845;48.120;11.534;2023-06-14T15:12:22;7.20;;;3.47;;
7607;SDS011;3845;48.120;11.534;2023-06-14T15:14:51;4.90;;;3.90;;
7607;SDS011;3845;48.120;11.534;2023-06-14T15:17:20;4.57;;;3.60;;